Padawan 2 — PADAWAN — position and weather

sailwx.info

Track history (hours):
 
Tides and Currents Weather Stations Pressure Air Temp Water Temp Dewpoint Dewpoint Depression Visibility Wind Speed Wind Dir Waves Ship Positions

Padawan 2

Last reported at 2016-Jul-24 18:31 UTC. Time now 2016-Jul-27 15:21 UTC.
Position N 44°58' W 086°02'.

Length 12 m; draft 2.4 m.

Type: Sailing vessel. MMSI: 338132449.

Date/timePositionNaut miles runAvg speedWind from/ knotsBaromVisibWave heightAir tempDewpointWater temp
2016-Jul-24 18:31N 44°58' W 086°02'8 8.7
2016-Jul-24 17:33N 44°51' W 086°09'9 8.9
2016-Jul-24 16:33N 44°43' W 086°14'8 7.8
2016-Jul-24 15:33N 44°36' W 086°18'8 8.3
2016-Jul-24 14:33N 44°28' W 086°21'9 9.0
2016-Jul-24 13:33N 44°19' W 086°26'9 8.6
2016-Jul-24 12:33N 44°12' W 086°31'1010.1
2016-Jul-24 11:33N 44°02' W 086°35'9 8.9
2016-Jul-24 10:33N 43°53' W 086°34'10 9.4
2016-Jul-24 09:32N 43°44' W 086°39'  
Track history (hours):
 
Tides and Currents Weather Stations Pressure Air Temp Water Temp Dewpoint Dewpoint Depression Visibility Wind Speed Wind Dir Waves Ship Positions

Padawan 2

Last reported at 2016-Jul-24 18:31 UTC. Time now 2016-Jul-27 15:21 UTC.
Position N 44°58' W 086°02'.

Length 12 m; draft 2.4 m.

Type: Sailing vessel. MMSI: 338132449.

Date/timePositionNaut miles runAvg speedWind from/ knotsBaromVisibWave heightAir tempDewpointWater temp
2016-Jul-24 18:31N 44°58' W 086°02'8 8.7
2016-Jul-24 17:33N 44°51' W 086°09'9 8.9
2016-Jul-24 16:33N 44°43' W 086°14'8 7.8
2016-Jul-24 15:33N 44°36' W 086°18'8 8.3
2016-Jul-24 14:33N 44°28' W 086°21'9 9.0
2016-Jul-24 13:33N 44°19' W 086°26'9 8.6
2016-Jul-24 12:33N 44°12' W 086°31'1010.1
2016-Jul-24 11:33N 44°02' W 086°35'9 8.9
2016-Jul-24 10:33N 43°53' W 086°34'10 9.4
2016-Jul-24 09:32N 43°44' W 086°39'  

Dump ship's entire track history